createdAt,value
2023-06-18T00:02:03.814Z,8.33
2023-06-18T00:04:35.152Z,10.50
2023-06-18T00:07:06.702Z,9.07
2023-06-18T00:09:38.296Z,9.30
2023-06-18T00:12:09.973Z,9.83
2023-06-18T00:14:41.355Z,13.80
2023-06-18T00:17:12.752Z,9.47
2023-06-18T00:19:44.070Z,10.47
2023-06-18T00:22:16.436Z,10.17
2023-06-18T00:24:47.768Z,11.77
2023-06-18T00:27:21.186Z,10.33
2023-06-18T00:29:53.036Z,11.57
2023-06-18T00:32:24.383Z,10.97
2023-06-18T00:34:55.710Z,11.53
2023-06-18T00:37:28.827Z,9.47
2023-06-18T00:40:00.231Z,8.10
2023-06-18T00:42:31.651Z,8.60
2023-06-18T00:45:04.382Z,10.60
2023-06-18T00:47:45.513Z,9.53
2023-06-18T00:50:18.615Z,8.63
2023-06-18T00:52:50.997Z,8.13
2023-06-18T00:55:22.840Z,11.87
2023-06-18T00:58:00.788Z,7.63
2023-06-18T01:00:35.566Z,8.70
2023-06-18T01:03:19.082Z,9.23
2023-06-18T01:05:55.199Z,7.57
2023-06-18T01:08:29.182Z,8.63
2023-06-18T01:11:03.255Z,10.03
2023-06-18T01:13:37.684Z,8.10
2023-06-18T01:16:09.933Z,11.27
2023-06-18T01:18:46.434Z,9.80
2023-06-18T01:21:21.590Z,11.17
2023-06-18T01:23:54.050Z,11.97
2023-06-18T01:26:27.542Z,9.00
2023-06-18T01:29:00.134Z,12.77
2023-06-18T01:31:40.234Z,8.43
2023-06-18T01:34:11.534Z,8.70
2023-06-18T01:37:25.927Z,8.57
2023-06-18T01:40:32.711Z,6.77
2023-06-18T01:43:22.308Z,7.72
2023-06-18T01:45:58.881Z,7.23
2023-06-18T01:48:36.595Z,11.93
2023-06-18T01:51:08.720Z,7.13
2023-06-18T01:53:41.948Z,15.70
2023-06-18T01:56:14.473Z,10.47
2023-06-18T01:58:46.084Z,11.90
2023-06-18T02:01:18.053Z,11.20
2023-06-18T02:03:49.582Z,12.20
2023-06-18T02:06:21.138Z,12.33
2023-06-18T02:08:52.516Z,13.80
2023-06-18T02:11:24.436Z,11.20
2023-06-18T02:13:55.785Z,11.23
2023-06-18T02:16:27.257Z,11.57
2023-06-18T02:18:58.697Z,14.13
2023-06-18T02:21:30.127Z,11.37
2023-06-18T02:24:01.475Z,13.57
2023-06-18T02:26:32.889Z,14.30
2023-06-18T02:29:04.273Z,14.50
2023-06-18T02:31:36.036Z,13.00
2023-06-18T02:34:07.408Z,11.40
2023-06-18T02:36:39.905Z,10.20
2023-06-18T02:39:11.497Z,11.77
2023-06-18T02:41:42.852Z,10.80
2023-06-18T02:44:14.257Z,11.27
2023-06-18T02:46:45.587Z,12.90
2023-06-18T02:49:16.994Z,10.07
2023-06-18T02:51:49.184Z,11.77
2023-06-18T02:54:21.393Z,18.03
2023-06-18T02:56:52.766Z,12.43
2023-06-18T02:59:24.249Z,10.27
2023-06-18T03:01:55.612Z,10.43
2023-06-18T03:04:26.945Z,12.30
2023-06-18T03:07:01.747Z,11.07
2023-06-18T03:09:33.061Z,12.50
2023-06-18T03:12:05.106Z,12.67
2023-06-18T03:14:36.454Z,9.83
2023-06-18T03:17:07.894Z,10.77
2023-06-18T03:19:39.511Z,9.27
2023-06-18T03:22:11.262Z,10.27
2023-06-18T03:24:42.808Z,10.73
2023-06-18T03:27:14.243Z,9.90
2023-06-18T03:29:46.110Z,11.30
2023-06-18T03:32:17.602Z,10.43
2023-06-18T03:34:49.758Z,12.07
2023-06-18T03:37:21.624Z,11.93
2023-06-18T03:39:52.989Z,13.90
2023-06-18T03:42:25.023Z,11.10
2023-06-18T03:44:56.384Z,11.73
2023-06-18T03:47:27.857Z,10.90
2023-06-18T03:49:59.277Z,10.47
2023-06-18T03:52:30.654Z,12.40
2023-06-18T03:55:02.211Z,10.03
2023-06-18T03:57:33.601Z,10.53
2023-06-18T04:00:10.060Z,10.80
2023-06-18T04:02:41.969Z,11.07
2023-06-18T04:05:13.544Z,10.60
2023-06-18T04:07:44.916Z,10.83
2023-06-18T04:10:16.263Z,16.67
2023-06-18T04:12:47.591Z,16.27
2023-06-18T04:15:18.950Z,13.03
2023-06-18T04:17:50.348Z,11.17
2023-06-18T04:20:22.253Z,10.90
2023-06-18T04:22:53.740Z,10.97
2023-06-18T04:25:25.077Z,10.97
2023-06-18T04:27:56.873Z,13.07
2023-06-18T04:30:28.277Z,10.93
2023-06-18T04:32:59.644Z,10.97
2023-06-18T04:35:31.625Z,13.23
2023-06-18T04:38:02.975Z,10.83
2023-06-18T04:40:34.325Z,13.50
2023-06-18T04:43:05.965Z,13.23
2023-06-18T04:45:38.498Z,13.97
2023-06-18T04:48:10.177Z,15.43
2023-06-18T04:50:42.340Z,13.73
2023-06-18T04:53:13.648Z,12.80
2023-06-18T04:55:45.138Z,11.93
2023-06-18T04:58:16.561Z,12.47
2023-06-18T05:00:47.983Z,17.00
2023-06-18T05:03:19.463Z,12.13
2023-06-18T05:05:50.974Z,10.57
2023-06-18T05:08:22.443Z,10.63
2023-06-18T05:10:53.835Z,17.17
2023-06-18T05:13:25.170Z,14.50
2023-06-18T05:15:56.518Z,13.40
2023-06-18T05:18:27.850Z,14.83
2023-06-18T05:20:59.188Z,11.73
2023-06-18T05:23:30.661Z,11.63
2023-06-18T05:26:02.150Z,13.30
2023-06-18T05:28:33.479Z,14.17
2023-06-18T05:31:04.810Z,13.43
2023-06-18T05:33:36.157Z,12.30
2023-06-18T05:36:07.751Z,13.00
2023-06-18T05:38:39.156Z,11.10
2023-06-18T05:41:10.579Z,10.87
2023-06-18T05:43:41.884Z,11.07
2023-06-18T05:46:13.301Z,10.57
2023-06-18T05:48:44.665Z,8.53
2023-06-18T05:51:16.657Z,9.43
2023-06-18T05:53:48.009Z,11.25
2023-06-18T05:56:19.337Z,9.23
2023-06-18T05:58:50.658Z,9.07
2023-06-18T06:01:22.050Z,7.75
2023-06-18T06:03:53.524Z,7.50
2023-06-18T06:06:24.897Z,5.68
2023-06-18T06:08:56.524Z,7.65
2023-06-18T06:11:27.903Z,8.32
2023-06-18T06:13:59.776Z,6.85
2023-06-18T06:16:31.223Z,6.75
2023-06-18T06:19:02.690Z,6.32
2023-06-18T06:21:34.994Z,7.35
2023-06-18T06:24:07.196Z,7.07
2023-06-18T06:26:38.595Z,6.75
2023-06-18T06:29:10.063Z,6.13
2023-06-18T06:31:41.641Z,6.93
2023-06-18T06:34:12.951Z,8.43
2023-06-18T06:36:44.465Z,8.10
2023-06-18T06:39:17.590Z,5.68
2023-06-18T06:41:48.971Z,6.07
2023-06-18T06:44:20.461Z,5.47
2023-06-18T06:46:51.837Z,6.75
2023-06-18T06:49:23.153Z,5.45
2023-06-18T06:51:56.469Z,4.80
2023-06-18T06:54:27.888Z,6.45
2023-06-18T06:56:59.249Z,8.75
2023-06-18T06:59:31.824Z,6.25
2023-06-18T07:02:03.419Z,4.68
2023-06-18T07:04:34.781Z,6.32
2023-06-18T07:07:06.156Z,5.63
2023-06-18T07:09:37.469Z,6.50
2023-06-18T07:12:09.146Z,4.55
2023-06-18T07:14:40.671Z,5.57
2023-06-18T07:17:12.107Z,6.05
2023-06-18T07:19:43.470Z,6.63
2023-06-18T07:22:14.801Z,7.60
2023-06-18T07:24:46.122Z,6.18
2023-06-18T07:27:17.540Z,6.13
2023-06-18T07:29:48.876Z,5.10
2023-06-18T07:32:20.248Z,4.50
2023-06-18T07:34:51.725Z,6.15
2023-06-18T07:37:23.054Z,7.45
2023-06-18T07:39:55.992Z,5.72
2023-06-18T07:42:27.358Z,6.13
2023-06-18T07:44:58.787Z,6.15
2023-06-18T07:47:30.144Z,5.38
2023-06-18T07:50:03.018Z,4.53
2023-06-18T07:52:35.099Z,4.00
2023-06-18T07:55:07.038Z,4.60
2023-06-18T07:57:39.098Z,5.20
2023-06-18T08:00:11.368Z,5.93
2023-06-18T08:02:42.802Z,4.22
2023-06-18T08:05:14.256Z,5.97
2023-06-18T08:07:45.734Z,5.22
2023-06-18T08:10:17.122Z,4.47
2023-06-18T08:12:48.475Z,5.25
2023-06-18T08:15:19.822Z,4.38
2023-06-18T08:17:51.196Z,4.43
2023-06-18T08:20:22.720Z,5.20
2023-06-18T08:22:54.237Z,5.90
2023-06-18T08:25:25.583Z,6.72
2023-06-18T08:27:57.595Z,4.60
2023-06-18T08:30:29.062Z,4.95
2023-06-18T08:33:00.567Z,4.63
2023-06-18T08:35:32.017Z,4.47
2023-06-18T08:38:04.320Z,5.47
2023-06-18T08:40:49.446Z,4.88
2023-06-18T08:43:27.241Z,3.97
2023-06-18T08:46:04.751Z,5.78
2023-06-18T08:48:43.538Z,5.97
2023-06-18T08:51:17.147Z,6.65
2023-06-18T08:53:55.153Z,4.45
2023-06-18T08:56:28.334Z,3.90
2023-06-18T08:59:02.266Z,4.93
2023-06-18T09:01:33.875Z,5.13
2023-06-18T09:04:06.363Z,5.85
2023-06-18T09:06:38.069Z,6.68
2023-06-18T09:09:09.493Z,4.32
2023-06-18T09:11:40.879Z,4.75
2023-06-18T09:14:12.285Z,4.55
2023-06-18T09:16:44.237Z,5.10
2023-06-18T09:19:17.205Z,3.67
2023-06-18T09:21:48.721Z,3.72
2023-06-18T09:24:24.472Z,3.92
2023-06-18T09:27:04.227Z,4.20
2023-06-18T09:29:41.628Z,6.07
2023-06-18T09:32:15.198Z,3.85
2023-06-18T09:34:46.677Z,3.55
2023-06-18T09:37:20.492Z,4.03
2023-06-18T09:39:54.625Z,4.50
2023-06-18T09:42:30.867Z,4.15
2023-06-18T09:45:02.292Z,5.72
2023-06-18T09:47:33.652Z,4.32
2023-06-18T09:50:06.712Z,4.95
2023-06-18T09:52:46.074Z,3.88
2023-06-18T09:55:32.327Z,4.03
2023-06-18T09:58:03.776Z,6.20
2023-06-18T10:00:35.113Z,5.00
2023-06-18T10:03:08.477Z,5.60
2023-06-18T10:05:40.393Z,5.95
2023-06-18T10:08:12.010Z,4.05
2023-06-18T10:10:43.922Z,3.33
2023-06-18T10:13:15.381Z,3.90
2023-06-18T10:15:46.965Z,3.95
2023-06-18T10:18:24.056Z,4.68
2023-06-18T10:21:01.901Z,4.10
2023-06-18T10:23:34.373Z,3.95
2023-06-18T10:26:08.994Z,4.72
2023-06-18T10:28:41.625Z,5.75
2023-06-18T10:31:13.218Z,5.70
2023-06-18T10:33:46.162Z,4.15
2023-06-18T10:36:17.862Z,4.05
2023-06-18T10:38:49.955Z,4.43
2023-06-18T10:41:21.659Z,6.10
2023-06-18T10:43:55.637Z,3.38
2023-06-18T10:46:27.681Z,5.35
2023-06-18T10:49:16.143Z,3.47
2023-06-18T10:52:15.246Z,3.75
2023-06-18T10:54:46.573Z,4.45
2023-06-18T10:57:18.057Z,3.35
2023-06-18T10:59:50.962Z,3.95
2023-06-18T11:02:35.106Z,4.60
2023-06-18T11:05:06.766Z,2.88
2023-06-18T11:07:40.897Z,4.25
2023-06-18T11:10:12.438Z,5.25
2023-06-18T11:12:44.867Z,5.28
2023-06-18T11:15:18.394Z,4.88
2023-06-18T11:17:55.232Z,4.03
2023-06-18T11:20:27.572Z,3.97
2023-06-18T11:23:01.247Z,4.05
2023-06-18T11:25:32.725Z,4.45
2023-06-18T11:28:06.070Z,6.60
2023-06-18T11:30:38.481Z,3.38
2023-06-18T11:33:09.872Z,3.58
2023-06-18T11:35:41.332Z,3.80
2023-06-18T11:38:12.910Z,3.88
2023-06-18T11:40:55.778Z,4.47
2023-06-18T11:43:27.175Z,5.32
2023-06-18T11:45:58.951Z,4.25
2023-06-18T11:48:34.161Z,4.13
2023-06-18T11:51:05.506Z,4.20
2023-06-18T11:53:36.868Z,3.72
2023-06-18T11:56:08.334Z,2.63
2023-06-18T11:58:39.974Z,3.45
2023-06-18T12:01:17.274Z,4.30
2023-06-18T12:16:36.282Z,4.35
2023-06-18T12:19:16.075Z,5.72
2023-06-18T12:21:53.971Z,4.18
2023-06-18T12:24:29.834Z,4.55
2023-06-18T12:27:05.575Z,3.42
2023-06-18T12:29:41.630Z,3.10
2023-06-18T12:32:13.562Z,4.00
2023-06-18T12:34:44.893Z,3.67
2023-06-18T12:37:16.249Z,4.18
2023-06-18T12:40:10.924Z,5.55
2023-06-18T12:42:43.399Z,4.50
2023-06-18T12:45:25.735Z,4.32
2023-06-18T12:47:58.598Z,3.20
2023-06-18T12:50:39.082Z,2.97
2023-06-18T12:53:19.146Z,3.50
2023-06-18T12:55:54.319Z,3.10
2023-06-18T12:58:28.294Z,4.00
2023-06-18T13:01:00.400Z,3.05
2023-06-18T13:03:32.489Z,3.38
2023-06-18T13:06:04.037Z,4.80
2023-06-18T13:08:36.061Z,3.72
2023-06-18T13:11:07.406Z,8.82
2023-06-18T13:13:38.816Z,3.70
2023-06-18T13:16:10.581Z,3.38
2023-06-18T13:18:42.528Z,3.97
2023-06-18T13:21:14.215Z,4.60
2023-06-18T13:23:46.270Z,5.90
2023-06-18T13:26:19.797Z,3.85
2023-06-18T13:28:51.548Z,3.55
2023-06-18T13:31:22.918Z,3.33
2023-06-18T13:33:54.292Z,3.70
2023-06-18T13:36:25.755Z,3.25
2023-06-18T13:38:57.418Z,2.85
2023-06-18T13:41:28.757Z,3.47
2023-06-18T13:44:00.139Z,3.60
2023-06-18T13:46:31.785Z,4.20
2023-06-18T13:49:04.143Z,3.08
2023-06-18T13:51:35.565Z,2.63
2023-06-18T13:54:07.261Z,3.28
2023-06-18T13:56:38.696Z,4.22
2023-06-18T13:59:10.125Z,3.10
2023-06-18T14:01:42.131Z,3.53
2023-06-18T14:04:13.611Z,4.05
2023-06-18T14:06:45.563Z,3.13
2023-06-18T14:09:19.258Z,5.22
2023-06-18T14:11:51.551Z,3.25
2023-06-18T14:14:23.476Z,4.15
2023-06-18T14:16:54.797Z,5.40
2023-06-18T14:19:26.232Z,3.92
2023-06-18T14:21:58.656Z,6.20
2023-06-18T14:24:30.249Z,3.55
2023-06-18T14:27:03.298Z,3.20
2023-06-18T14:29:34.687Z,3.65
2023-06-18T14:32:06.083Z,3.38
2023-06-18T14:34:37.402Z,3.17
2023-06-18T14:37:09.297Z,3.65
2023-06-18T14:39:40.759Z,3.72
2023-06-18T14:42:12.096Z,3.50
2023-06-18T14:44:43.822Z,3.80
2023-06-18T14:47:15.162Z,3.10
2023-06-18T14:49:54.021Z,2.50
2023-06-18T14:52:25.349Z,4.63
2023-06-18T14:54:56.675Z,3.83
2023-06-18T14:57:28.116Z,4.30
2023-06-18T14:59:59.611Z,3.47
2023-06-18T15:02:30.980Z,3.25
2023-06-18T15:05:02.702Z,4.25
2023-06-18T15:07:34.570Z,3.40
2023-06-18T15:10:06.371Z,5.00
2023-06-18T15:12:37.776Z,3.78
2023-06-18T15:15:09.569Z,2.80
2023-06-18T15:17:41.370Z,3.90
2023-06-18T15:20:14.937Z,3.88
2023-06-18T15:22:46.264Z,4.35
2023-06-18T15:25:17.795Z,3.17
2023-06-18T15:27:49.108Z,4.72
2023-06-18T15:30:20.554Z,6.20
2023-06-18T15:32:51.980Z,3.53
2023-06-18T15:35:23.549Z,4.13
2023-06-18T15:38:01.004Z,9.05
2023-06-18T15:40:32.354Z,4.47
2023-06-18T15:43:03.676Z,4.03
2023-06-18T15:45:35.010Z,6.78
2023-06-18T15:48:06.412Z,3.10
2023-06-18T15:50:37.770Z,4.10
2023-06-18T15:53:09.133Z,4.40
2023-06-18T15:55:40.669Z,3.55
2023-06-18T15:58:12.001Z,5.20
2023-06-18T16:00:43.358Z,5.07
2023-06-18T16:03:14.748Z,6.85
2023-06-18T16:05:46.312Z,5.15
2023-06-18T16:08:17.709Z,3.55
2023-06-18T16:10:49.263Z,4.68
2023-06-18T16:13:22.240Z,3.65
2023-06-18T16:15:53.633Z,3.90
2023-06-18T16:18:24.987Z,4.50
2023-06-18T16:20:56.530Z,5.60
2023-06-18T16:23:27.851Z,4.72
2023-06-18T16:25:59.632Z,4.30
2023-06-18T16:28:32.420Z,3.55
2023-06-18T16:31:03.753Z,3.78
2023-06-18T16:33:35.088Z,4.03
2023-06-18T16:36:06.677Z,4.93
2023-06-18T16:38:38.304Z,3.88
2023-06-18T16:41:09.893Z,3.85
2023-06-18T16:43:41.280Z,3.63
2023-06-18T16:46:12.811Z,3.42
2023-06-18T16:48:44.310Z,3.60
2023-06-18T16:51:15.744Z,3.85
2023-06-18T16:53:47.062Z,3.72
2023-06-18T16:56:18.374Z,5.82
2023-06-18T16:58:50.538Z,3.80
2023-06-18T17:01:22.014Z,3.38
2023-06-18T17:03:53.605Z,3.67
2023-06-18T17:06:25.054Z,5.38
2023-06-18T17:08:56.353Z,3.67
2023-06-18T17:11:28.995Z,5.50
2023-06-18T17:14:01.526Z,5.13
2023-06-18T17:16:32.985Z,3.85
2023-06-18T17:19:04.316Z,3.88
2023-06-18T17:21:36.160Z,4.05
2023-06-18T17:24:07.602Z,3.78
2023-06-18T17:26:39.010Z,4.97
2023-06-18T17:29:10.797Z,4.45
2023-06-18T17:31:42.164Z,4.85
2023-06-18T17:34:15.585Z,5.10
2023-06-18T17:36:48.103Z,5.78
2023-06-18T17:39:20.958Z,4.57
2023-06-18T17:41:52.520Z,5.88
2023-06-18T17:44:23.961Z,4.63
2023-06-18T17:46:55.374Z,3.83
2023-06-18T17:49:27.123Z,4.00
2023-06-18T17:51:58.528Z,7.07
2023-06-18T17:54:29.893Z,5.05
2023-06-18T17:57:01.245Z,4.10
2023-06-18T17:59:32.592Z,4.80
2023-06-18T18:02:04.293Z,5.40
2023-06-18T18:04:37.368Z,4.50
2023-06-18T18:07:08.793Z,5.50
2023-06-18T18:09:40.174Z,4.57
2023-06-18T18:12:11.573Z,4.43
2023-06-18T18:14:43.251Z,4.68
2023-06-18T18:17:14.839Z,4.35
2023-06-18T18:19:46.175Z,5.07
2023-06-18T18:22:19.211Z,4.20
2023-06-18T18:24:50.672Z,4.68
2023-06-18T18:27:22.013Z,5.40
2023-06-18T18:29:53.425Z,4.47
2023-06-18T18:32:25.608Z,4.57
2023-06-18T18:34:57.081Z,6.05
2023-06-18T18:37:28.444Z,4.40
2023-06-18T18:39:59.832Z,5.90
2023-06-18T18:42:31.237Z,4.75
2023-06-18T18:45:03.714Z,4.97
2023-06-18T18:47:35.053Z,5.50
2023-06-18T18:50:06.889Z,6.00
2023-06-18T18:52:38.517Z,4.50
2023-06-18T18:55:09.975Z,4.50
2023-06-18T18:57:41.370Z,6.35
2023-06-18T19:00:14.040Z,5.88
2023-06-18T19:02:45.640Z,5.40
2023-06-18T19:05:17.055Z,3.88
2023-06-18T19:07:50.467Z,5.65
2023-06-18T19:10:22.614Z,4.93
2023-06-18T19:12:54.311Z,5.43
2023-06-18T19:15:25.675Z,4.32
2023-06-18T19:17:57.084Z,5.82
2023-06-18T19:20:28.511Z,6.35
2023-06-18T19:22:59.915Z,7.93
2023-06-18T19:25:34.104Z,9.25
2023-06-18T19:28:05.467Z,4.93
2023-06-18T19:30:43.045Z,8.50
2023-06-18T19:33:14.578Z,4.32
2023-06-18T19:35:45.999Z,5.40
2023-06-18T19:38:17.452Z,9.63
2023-06-18T19:40:49.810Z,6.60
2023-06-18T19:43:22.532Z,6.57
2023-06-18T19:45:53.946Z,4.85
2023-06-18T19:48:25.303Z,8.20
2023-06-18T19:50:56.659Z,6.63
2023-06-18T19:53:28.100Z,5.63
2023-06-18T19:55:59.883Z,6.15
2023-06-18T19:58:31.278Z,6.10
2023-06-18T20:01:02.621Z,6.35
2023-06-18T20:03:34.974Z,4.75
2023-06-18T20:06:06.677Z,5.68
2023-06-18T20:08:38.113Z,5.93
2023-06-18T20:11:09.547Z,5.82
2023-06-18T20:13:40.863Z,7.18
2023-06-18T20:16:12.535Z,4.65
2023-06-18T20:18:43.937Z,5.32
2023-06-18T20:21:15.293Z,6.85
2023-06-18T20:23:46.619Z,5.95
2023-06-18T20:26:18.009Z,6.10
2023-06-18T20:28:49.330Z,6.65
2023-06-18T20:31:20.893Z,8.35
2023-06-18T20:33:52.284Z,6.88
2023-06-18T20:36:23.617Z,6.63
2023-06-18T20:38:54.967Z,5.07
2023-06-18T20:41:26.290Z,6.10
2023-06-18T20:43:57.647Z,5.75
2023-06-18T20:46:29.062Z,7.68
2023-06-18T20:49:01.319Z,5.47
2023-06-18T20:51:32.662Z,6.28
2023-06-18T20:54:04.105Z,6.53
2023-06-18T20:56:35.511Z,5.57
2023-06-18T20:59:06.823Z,6.25
2023-06-18T21:01:38.363Z,10.27
2023-06-18T21:04:10.067Z,6.30
2023-06-18T21:06:41.399Z,5.18
2023-06-18T21:09:12.793Z,5.55
2023-06-18T21:11:44.121Z,6.20
2023-06-18T21:14:15.950Z,5.85
2023-06-18T21:16:47.336Z,6.43
2023-06-18T21:19:20.600Z,9.73
2023-06-18T21:21:51.971Z,6.20
2023-06-18T21:24:23.312Z,6.30
2023-06-18T21:26:54.697Z,10.20
2023-06-18T21:29:26.603Z,5.82
2023-06-18T21:31:59.234Z,6.82
2023-06-18T21:34:30.551Z,5.97
2023-06-18T21:37:02.200Z,6.43
2023-06-18T21:39:33.602Z,7.38
2023-06-18T21:42:05.283Z,6.10
2023-06-18T21:44:36.816Z,8.20
2023-06-18T21:47:08.203Z,7.97
2023-06-18T21:49:39.777Z,8.90
2023-06-18T21:52:11.079Z,8.95
2023-06-18T21:54:42.417Z,10.43
2023-06-18T21:57:13.803Z,5.78
2023-06-18T21:59:45.122Z,7.75
2023-06-18T22:02:16.538Z,5.13
2023-06-18T22:04:48.022Z,8.13
2023-06-18T22:07:19.443Z,7.75
2023-06-18T22:09:50.833Z,7.82
2023-06-18T22:12:22.728Z,5.57
2023-06-18T22:14:54.072Z,6.15
2023-06-18T22:17:26.797Z,5.90
2023-06-18T22:19:58.205Z,8.00
2023-06-18T22:22:29.530Z,11.07
2023-06-18T22:25:00.849Z,6.05
2023-06-18T22:27:32.207Z,9.52
2023-06-18T22:30:04.365Z,6.10
2023-06-18T22:32:35.783Z,6.85
2023-06-18T22:35:08.226Z,7.72
2023-06-18T22:37:39.560Z,6.55
2023-06-18T22:40:11.326Z,10.20
2023-06-18T22:42:42.648Z,7.30
2023-06-18T22:45:13.984Z,5.60
2023-06-18T22:47:45.322Z,5.18
2023-06-18T22:50:16.820Z,6.97
2023-06-18T22:52:48.186Z,8.52
2023-06-18T22:55:19.514Z,7.38
2023-06-18T22:57:50.961Z,6.35
2023-06-18T23:00:22.553Z,7.15
2023-06-18T23:02:54.193Z,6.20
2023-06-18T23:05:25.617Z,8.25
2023-06-18T23:07:57.123Z,5.68
2023-06-18T23:10:28.470Z,10.25
2023-06-18T23:12:59.867Z,7.45
2023-06-18T23:15:31.311Z,7.05
2023-06-18T23:18:02.910Z,9.10
2023-06-18T23:20:35.555Z,6.35
2023-06-18T23:23:06.968Z,7.90
2023-06-18T23:25:38.354Z,8.18
2023-06-18T23:28:09.683Z,5.68
2023-06-18T23:30:41.075Z,8.07
2023-06-18T23:33:12.529Z,8.88
2023-06-18T23:35:44.432Z,7.80
2023-06-18T23:38:15.851Z,6.88
2023-06-18T23:40:47.240Z,8.45
2023-06-18T23:43:19.626Z,7.45
2023-06-18T23:45:51.086Z,5.28
2023-06-18T23:48:22.515Z,6.90
2023-06-18T23:50:56.165Z,8.20
2023-06-18T23:53:27.501Z,6.80
2023-06-18T23:55:58.901Z,8.88
2023-06-18T23:58:30.311Z,7.43
